createdAt,value
2023-02-07T00:01:11.642Z,3.00
2023-02-07T00:03:41.238Z,2.73
2023-02-07T00:06:10.770Z,2.90
2023-02-07T00:08:39.653Z,3.22
2023-02-07T00:11:08.759Z,3.08
2023-02-07T00:13:37.087Z,3.55
2023-02-07T00:16:06.168Z,3.00
2023-02-07T00:18:35.519Z,2.80
2023-02-07T00:21:07.819Z,3.00
2023-02-07T00:23:36.435Z,2.85
2023-02-07T00:26:05.501Z,3.30
2023-02-07T00:28:33.237Z,3.25
2023-02-07T00:31:05.453Z,3.35
2023-02-07T00:33:33.242Z,2.47
2023-02-07T00:36:02.473Z,3.63
2023-02-07T00:38:32.726Z,3.63
2023-02-07T00:41:01.708Z,3.30
2023-02-07T00:43:30.293Z,3.40
2023-02-07T00:45:59.393Z,2.90
2023-02-07T00:48:27.209Z,3.45
2023-02-07T00:50:54.909Z,2.65
2023-02-07T00:53:23.223Z,3.28
2023-02-07T00:55:52.250Z,3.20
2023-02-07T00:58:20.044Z,3.47
2023-02-07T01:00:47.897Z,3.25
2023-02-07T01:03:15.836Z,3.38
2023-02-07T01:05:44.120Z,4.22
2023-02-07T01:08:12.237Z,3.65
2023-02-07T01:10:40.481Z,3.20
2023-02-07T01:13:13.141Z,3.40
2023-02-07T01:15:43.720Z,3.13
2023-02-07T01:18:12.115Z,3.05
2023-02-07T01:20:40.196Z,2.80
2023-02-07T01:23:08.040Z,3.50
2023-02-07T01:25:35.874Z,3.28
2023-02-07T01:28:05.162Z,3.20
2023-02-07T01:30:34.270Z,3.40
2023-02-07T01:33:01.899Z,2.78
2023-02-07T01:35:29.475Z,3.38
2023-02-07T01:37:58.289Z,4.03
2023-02-07T01:40:26.937Z,3.65
2023-02-07T01:42:54.498Z,3.60
2023-02-07T01:45:29.430Z,3.33
2023-02-07T01:48:02.664Z,3.80
2023-02-07T01:52:59.792Z,3.80
2023-02-07T01:55:34.950Z,3.63
2023-02-07T01:58:05.108Z,3.88
2023-02-07T02:00:32.721Z,4.22
2023-02-07T02:03:02.080Z,4.70
2023-02-07T02:05:32.171Z,4.20
2023-02-07T02:08:00.253Z,4.40
2023-02-07T02:10:43.626Z,4.20
2023-02-07T02:13:24.204Z,4.25
2023-02-07T02:16:04.332Z,4.68
2023-02-07T02:18:49.838Z,4.47
2023-02-07T02:22:02.803Z,4.75
2023-02-07T02:25:03.735Z,4.65
2023-02-07T02:27:53.603Z,4.90
2023-02-07T02:31:02.723Z,5.20
2023-02-07T02:33:43.176Z,4.68
2023-02-07T02:36:23.351Z,5.20
2023-02-07T02:38:57.037Z,5.32
2023-02-07T02:41:30.769Z,4.45
2023-02-07T02:44:03.704Z,4.90
2023-02-07T02:46:35.140Z,5.25
2023-02-07T02:49:06.395Z,5.03
2023-02-07T02:51:34.030Z,4.80
2023-02-07T02:54:02.373Z,5.88
2023-02-07T02:56:56.386Z,5.20
2023-02-07T02:59:48.340Z,5.13
2023-02-07T03:02:30.257Z,4.82
2023-02-07T03:05:12.964Z,4.40
2023-02-07T03:07:48.641Z,4.97
2023-02-07T03:10:25.611Z,4.70
2023-02-07T03:13:00.028Z,5.03
2023-02-07T03:15:37.605Z,4.63
2023-02-07T03:18:11.693Z,4.72
2023-02-07T03:20:46.835Z,4.25
2023-02-07T03:23:16.248Z,4.72
2023-02-07T03:25:46.494Z,5.13
2023-02-07T03:28:17.640Z,4.97
2023-02-07T03:30:49.527Z,5.28
2023-02-07T03:33:18.757Z,5.72
2023-02-07T03:35:54.436Z,5.63
2023-02-07T03:38:22.440Z,5.18
2023-02-07T03:40:54.594Z,6.18
2023-02-07T03:43:25.926Z,5.87
2023-02-07T03:45:53.781Z,5.68
2023-02-07T03:48:21.377Z,6.38
2023-02-07T03:50:51.852Z,5.57
2023-02-07T03:53:19.746Z,6.13
2023-02-07T03:55:47.344Z,6.10
2023-02-07T03:58:15.092Z,6.00
2023-02-07T04:00:42.659Z,6.70
2023-02-07T04:03:10.292Z,6.65
2023-02-07T04:05:38.357Z,6.13
2023-02-07T04:08:07.395Z,7.45
2023-02-07T04:10:34.958Z,7.97
2023-02-07T04:13:02.545Z,6.78
2023-02-07T04:15:30.371Z,6.88
2023-02-07T04:17:57.941Z,6.97
2023-02-07T04:20:25.501Z,7.00
2023-02-07T04:22:53.153Z,6.25
2023-02-07T04:25:22.107Z,7.28
2023-02-07T04:27:52.279Z,7.22
2023-02-07T04:30:20.102Z,7.22
2023-02-07T04:32:47.717Z,7.07
2023-02-07T04:35:15.327Z,7.50
2023-02-07T04:37:42.892Z,7.90
2023-02-07T04:40:11.523Z,8.13
2023-02-07T04:42:40.485Z,6.40
2023-02-07T04:45:08.787Z,7.28
2023-02-07T04:47:36.373Z,7.60
2023-02-07T04:50:04.218Z,7.50
2023-02-07T04:52:31.873Z,7.78
2023-02-07T04:54:59.518Z,7.68
2023-02-07T04:57:27.141Z,7.30
2023-02-07T04:59:56.084Z,8.50
2023-02-07T05:02:24.069Z,8.05
2023-02-07T05:04:51.758Z,7.55
2023-02-07T05:07:19.379Z,7.95
2023-02-07T05:09:47.198Z,7.40
2023-02-07T05:12:16.356Z,7.43
2023-02-07T05:14:43.986Z,7.20
2023-02-07T05:17:12.906Z,7.20
2023-02-07T05:19:40.939Z,8.25
2023-02-07T05:22:08.549Z,7.32
2023-02-07T05:24:36.191Z,7.78
2023-02-07T05:27:03.864Z,7.55
2023-02-07T05:29:31.441Z,8.07
2023-02-07T05:32:16.757Z,8.43
2023-02-07T05:34:45.761Z,7.75
2023-02-07T05:37:13.318Z,8.05
2023-02-07T05:39:40.926Z,8.07
2023-02-07T05:42:08.564Z,9.05
2023-02-07T05:44:36.306Z,8.60
2023-02-07T05:47:03.841Z,8.45
2023-02-07T05:49:31.457Z,8.18
2023-02-07T05:52:00.626Z,12.27
2023-02-07T05:54:28.189Z,11.43
2023-02-07T05:56:55.800Z,12.40
2023-02-07T05:59:23.627Z,10.95
2023-02-07T06:01:51.233Z,11.60
2023-02-07T06:04:18.863Z,13.13
2023-02-07T06:06:46.529Z,9.43
2023-02-07T06:09:15.558Z,9.95
2023-02-07T06:11:43.158Z,10.38
2023-02-07T06:14:10.899Z,10.68
2023-02-07T06:16:38.477Z,9.52
2023-02-07T06:19:06.045Z,10.00
2023-02-07T06:21:45.651Z,8.15
2023-02-07T06:24:15.446Z,8.27
2023-02-07T06:26:44.245Z,7.80
2023-02-07T06:29:11.796Z,7.68
2023-02-07T06:31:39.437Z,7.70
2023-02-07T06:34:07.121Z,7.97
2023-02-07T06:36:34.755Z,8.30
2023-02-07T06:39:02.410Z,10.48
2023-02-07T06:41:31.312Z,10.00
2023-02-07T06:43:59.047Z,8.27
2023-02-07T06:46:26.755Z,7.80
2023-02-07T06:48:54.360Z,7.75
2023-02-07T06:51:21.970Z,7.32
2023-02-07T06:53:49.565Z,7.97
2023-02-07T06:56:18.683Z,7.72
2023-02-07T06:58:48.249Z,7.55
2023-02-07T07:01:19.986Z,7.10
2023-02-07T07:03:47.753Z,8.18
2023-02-07T07:06:15.460Z,7.40
2023-02-07T07:08:43.101Z,7.38
2023-02-07T07:11:10.772Z,7.18
2023-02-07T07:13:38.643Z,6.68
2023-02-07T07:16:08.255Z,7.55
2023-02-07T07:18:37.492Z,7.35
2023-02-07T07:21:05.718Z,7.40
2023-02-07T07:23:33.583Z,6.72
2023-02-07T07:26:01.214Z,7.30
2023-02-07T07:28:28.942Z,7.07
2023-02-07T07:30:56.553Z,9.68
2023-02-07T07:33:25.569Z,14.13
2023-02-07T07:35:57.701Z,8.95
2023-02-07T07:38:25.305Z,7.30
2023-02-07T07:40:52.944Z,8.57
2023-02-07T07:43:20.886Z,8.00
2023-02-07T07:45:53.441Z,7.47
2023-02-07T07:48:21.380Z,7.65
2023-02-07T07:50:51.112Z,6.97
2023-02-07T07:53:19.227Z,6.78
2023-02-07T07:55:50.280Z,8.00
2023-02-07T07:58:18.052Z,7.35
2023-02-07T08:00:47.567Z,8.45
2023-02-07T08:03:15.358Z,8.70
2023-02-07T08:05:43.110Z,7.05
2023-02-07T08:08:12.249Z,6.95
2023-02-07T08:10:40.666Z,7.35
2023-02-07T08:13:08.479Z,6.88
2023-02-07T08:15:36.257Z,7.53
2023-02-07T08:18:04.073Z,6.72
2023-02-07T08:20:31.793Z,6.78
2023-02-07T08:22:59.371Z,7.03
2023-02-07T08:25:28.443Z,7.53
2023-02-07T08:27:56.407Z,7.03
2023-02-07T08:30:24.428Z,7.90
2023-02-07T08:32:52.679Z,6.55
2023-02-07T08:35:20.415Z,7.10
2023-02-07T08:37:48.018Z,6.90
2023-02-07T08:40:15.609Z,6.90
2023-02-07T08:42:44.540Z,7.10
2023-02-07T08:45:12.581Z,6.93
2023-02-07T08:47:40.386Z,6.90
2023-02-07T08:50:08.855Z,6.63
2023-02-07T08:52:36.529Z,6.38
2023-02-07T08:55:04.618Z,7.07
2023-02-07T08:57:33.036Z,8.25
2023-02-07T09:00:02.057Z,6.63
2023-02-07T09:02:29.759Z,6.13
2023-02-07T09:04:57.414Z,6.65
2023-02-07T09:07:25.010Z,7.45
2023-02-07T09:09:52.530Z,7.97
2023-02-07T09:12:20.188Z,6.10
2023-02-07T09:14:47.743Z,6.38
2023-02-07T09:17:16.703Z,6.60
2023-02-07T09:19:44.534Z,6.00
2023-02-07T09:22:12.134Z,6.20
2023-02-07T09:24:39.693Z,5.85
2023-02-07T09:27:07.750Z,6.05
2023-02-07T09:29:35.660Z,7.60
2023-02-07T09:32:03.560Z,5.63
2023-02-07T09:34:34.477Z,5.00
2023-02-07T09:37:02.216Z,5.40
2023-02-07T09:39:31.861Z,6.20
2023-02-07T09:42:12.167Z,6.65
2023-02-07T09:44:54.174Z,6.45
2023-02-07T09:47:24.550Z,5.93
2023-02-07T09:49:57.597Z,6.32
2023-02-07T09:52:30.038Z,5.78
2023-02-07T09:55:00.695Z,4.40
2023-02-07T09:57:37.564Z,6.55
2023-02-07T10:00:10.064Z,7.80
2023-02-07T10:02:41.303Z,9.60
2023-02-07T10:05:18.108Z,6.05
2023-02-07T10:07:46.909Z,5.32
2023-02-07T10:10:16.439Z,6.43
2023-02-07T10:12:59.224Z,6.72
2023-02-07T10:15:43.665Z,5.22
2023-02-07T10:18:31.796Z,6.97
2023-02-07T10:21:05.848Z,6.63
2023-02-07T10:23:43.744Z,5.57
2023-02-07T10:26:23.343Z,7.35
2023-02-07T10:29:19.020Z,6.55
2023-02-07T10:31:51.888Z,6.32
2023-02-07T10:34:22.785Z,6.80
2023-02-07T10:36:54.018Z,5.95
2023-02-07T10:39:27.850Z,6.25
2023-02-07T10:41:57.453Z,5.80
2023-02-07T10:44:25.371Z,7.38
2023-02-07T10:46:59.478Z,6.85
2023-02-07T10:49:30.065Z,6.07
2023-02-07T10:52:03.543Z,6.22
2023-02-07T10:54:31.091Z,6.47
2023-02-07T10:57:02.402Z,6.45
2023-02-07T10:59:40.568Z,6.55
2023-02-07T11:02:49.733Z,6.03
2023-02-07T11:05:41.536Z,7.25
2023-02-07T11:08:26.505Z,5.55
2023-02-07T11:10:55.849Z,5.63
2023-02-07T11:13:27.805Z,5.47
2023-02-07T11:15:59.539Z,5.47
2023-02-07T11:18:38.521Z,6.00
2023-02-07T11:21:08.583Z,5.65
2023-02-07T11:23:37.683Z,6.15
2023-02-07T11:26:06.049Z,5.65
2023-02-07T11:28:34.074Z,5.82
2023-02-07T11:31:04.160Z,5.63
2023-02-07T11:33:34.944Z,6.32
2023-02-07T11:36:22.122Z,5.70
2023-02-07T11:38:55.343Z,5.35
2023-02-07T11:41:25.573Z,5.70
2023-02-07T11:43:56.240Z,5.82
2023-02-07T11:46:31.140Z,5.53
2023-02-07T11:48:59.877Z,5.78
2023-02-07T11:51:28.712Z,6.00
2023-02-07T11:54:01.972Z,6.28
2023-02-07T11:56:34.130Z,6.70
2023-02-07T11:59:06.511Z,6.03
2023-02-07T12:01:36.622Z,6.00
2023-02-07T12:04:11.154Z,6.53
2023-02-07T12:06:43.183Z,6.57
2023-02-07T12:09:28.656Z,6.55
2023-02-07T12:11:58.615Z,6.22
2023-02-07T12:14:33.624Z,6.03
2023-02-07T12:17:07.937Z,5.45
2023-02-07T12:19:38.569Z,5.32
2023-02-07T12:22:11.785Z,5.78
2023-02-07T12:24:46.316Z,5.30
2023-02-07T12:27:16.779Z,4.88
2023-02-07T12:29:55.525Z,4.85
2023-02-07T12:32:32.492Z,5.57
2023-02-07T12:35:07.094Z,5.50
2023-02-07T12:37:42.876Z,5.32
2023-02-07T12:40:19.282Z,5.90
2023-02-07T12:42:53.142Z,5.95
2023-02-07T12:45:35.377Z,5.53
2023-02-07T12:48:11.109Z,6.25
2023-02-07T12:50:54.313Z,5.30
2023-02-07T12:53:37.839Z,5.65
2023-02-07T12:56:18.301Z,5.22
2023-02-07T12:58:54.757Z,5.53
2023-02-07T13:01:30.047Z,5.15
2023-02-07T13:04:36.721Z,5.72
2023-02-07T13:07:22.756Z,5.28
2023-02-07T13:09:56.177Z,4.78
2023-02-07T13:15:08.154Z,5.57
2023-02-07T13:17:46.614Z,5.28
2023-02-07T13:20:26.128Z,4.70
2023-02-07T13:23:00.334Z,5.18
2023-02-07T13:25:31.361Z,5.55
2023-02-07T13:28:04.627Z,5.30
2023-02-07T13:30:32.945Z,5.72
2023-02-07T13:33:13.884Z,4.90
2023-02-07T13:35:43.289Z,4.90
2023-02-07T13:38:21.250Z,6.13
2023-02-07T13:40:59.072Z,6.70
2023-02-07T13:43:39.244Z,8.90
2023-02-07T13:46:19.050Z,4.85
2023-02-07T13:48:51.712Z,5.25
2023-02-07T13:51:26.352Z,4.50
2023-02-07T13:54:02.837Z,4.90
2023-02-07T13:56:52.720Z,5.78
2023-02-07T13:59:42.793Z,5.82
2023-02-07T14:02:18.992Z,5.38
2023-02-07T14:04:53.647Z,5.40
2023-02-07T14:07:26.102Z,5.25
2023-02-07T14:09:56.762Z,5.75
2023-02-07T14:12:27.568Z,6.07
2023-02-07T14:15:03.122Z,5.55
2023-02-07T14:17:59.773Z,5.40
2023-02-07T14:20:48.158Z,6.13
2023-02-07T14:23:18.773Z,5.72
2023-02-07T14:25:47.577Z,5.30
2023-02-07T14:28:31.723Z,5.53
2023-02-07T14:31:14.437Z,5.93
2023-02-07T14:33:42.206Z,5.77
2023-02-07T14:36:25.120Z,6.47
2023-02-07T14:39:06.798Z,5.10
2023-02-07T14:41:38.051Z,5.53
2023-02-07T14:44:10.340Z,5.50
2023-02-07T14:46:42.645Z,5.53
2023-02-07T14:49:16.818Z,5.47
2023-02-07T14:51:47.973Z,5.07
2023-02-07T14:54:20.155Z,4.80
2023-02-07T14:56:53.738Z,4.40
2023-02-07T14:59:28.609Z,5.78
2023-02-07T15:01:57.507Z,6.63
2023-02-07T15:04:25.091Z,5.15
2023-02-07T15:06:52.695Z,4.47
2023-02-07T15:09:25.337Z,5.47
2023-02-07T15:12:03.558Z,5.40
2023-02-07T15:14:36.359Z,4.95
2023-02-07T15:17:06.236Z,5.00
2023-02-07T15:19:36.616Z,4.57
2023-02-07T15:22:17.200Z,5.05
2023-02-07T15:24:56.680Z,4.97
2023-02-07T15:27:26.093Z,5.20
2023-02-07T15:29:58.981Z,5.10
2023-02-07T15:32:30.801Z,4.50
2023-02-07T15:34:59.047Z,5.03
2023-02-07T15:37:27.655Z,4.78
2023-02-07T15:39:56.543Z,4.78
2023-02-07T15:42:24.747Z,5.20
2023-02-07T15:44:54.891Z,5.32
2023-02-07T15:47:37.323Z,4.25
2023-02-07T15:50:07.804Z,4.70
2023-02-07T15:52:38.804Z,4.82
2023-02-07T15:55:18.373Z,5.50
2023-02-07T15:57:46.249Z,5.30
2023-02-07T16:00:18.831Z,4.75
2023-02-07T16:02:57.542Z,4.30
2023-02-07T16:05:28.352Z,4.85
2023-02-07T16:07:56.814Z,4.75
2023-02-07T16:10:36.905Z,4.57
2023-02-07T16:13:11.847Z,4.38
2023-02-07T16:15:52.340Z,4.00
2023-02-07T16:21:16.639Z,4.40
2023-02-07T16:23:44.846Z,4.57
2023-02-07T16:26:13.099Z,3.97
2023-02-07T16:28:40.622Z,5.07
2023-02-07T16:31:08.322Z,5.45
2023-02-07T16:33:38.986Z,5.10
2023-02-07T16:36:12.173Z,4.10
2023-02-07T16:38:41.052Z,4.60
2023-02-07T16:41:21.995Z,4.78
2023-02-07T16:43:49.916Z,4.65
2023-02-07T16:46:17.526Z,4.93
2023-02-07T16:48:45.149Z,4.38
2023-02-07T16:51:12.813Z,4.47
2023-02-07T16:53:41.715Z,4.68
2023-02-07T16:56:13.069Z,4.55
2023-02-07T16:58:41.178Z,4.47
2023-02-07T17:01:08.748Z,4.15
2023-02-07T17:03:36.317Z,4.95
2023-02-07T17:06:04.724Z,4.95
2023-02-07T17:08:32.326Z,4.72
2023-02-07T17:11:05.440Z,5.18
2023-02-07T17:13:33.123Z,5.10
2023-02-07T17:16:00.727Z,4.68
2023-02-07T17:18:28.322Z,4.10
2023-02-07T17:20:56.880Z,3.88
2023-02-07T17:23:25.156Z,4.43
2023-02-07T17:25:52.765Z,4.00
2023-02-07T17:28:21.687Z,4.53
2023-02-07T17:30:50.498Z,4.15
2023-02-07T17:33:18.202Z,5.85
2023-02-07T17:35:45.837Z,5.30
2023-02-07T17:38:13.367Z,5.70
2023-02-07T17:40:42.111Z,4.57
2023-02-07T17:43:09.844Z,4.18
2023-02-07T17:45:38.982Z,3.90
2023-02-07T17:48:06.878Z,3.78
2023-02-07T17:50:36.451Z,3.72
2023-02-07T17:53:05.012Z,4.50
2023-02-07T17:55:33.609Z,3.65
2023-02-07T17:58:03.181Z,3.75
2023-02-07T18:00:33.873Z,4.50
2023-02-07T18:03:02.769Z,3.58
2023-02-07T18:05:30.927Z,3.80
2023-02-07T18:07:58.632Z,4.00
2023-02-07T18:10:29.057Z,5.57
2023-02-07T18:12:56.717Z,5.72
2023-02-07T18:15:25.326Z,5.97
2023-02-07T18:17:53.513Z,8.25
2023-02-07T18:20:25.143Z,7.45
2023-02-07T18:22:54.398Z,9.20
2023-02-07T18:25:22.163Z,8.13
2023-02-07T18:27:51.352Z,6.90
2023-02-07T18:30:20.223Z,7.07
2023-02-07T18:32:47.777Z,5.15
2023-02-07T18:35:16.041Z,4.03
2023-02-07T18:37:44.946Z,4.35
2023-02-07T18:40:15.545Z,5.43
2023-02-07T18:42:43.269Z,4.90
2023-02-07T18:45:13.439Z,5.05
2023-02-07T18:47:41.811Z,5.00
2023-02-07T18:50:10.652Z,4.47
2023-02-07T18:52:38.735Z,4.50
2023-02-07T18:55:08.612Z,4.93
2023-02-07T18:57:36.213Z,4.15
2023-02-07T19:00:04.610Z,3.30
2023-02-07T19:02:32.379Z,4.80
2023-02-07T19:05:00.398Z,4.50
2023-02-07T19:07:28.366Z,4.80
2023-02-07T19:12:24.970Z,3.95
2023-02-07T19:14:52.726Z,3.70
2023-02-07T19:17:20.562Z,4.25
2023-02-07T19:19:48.238Z,4.28
2023-02-07T19:22:21.581Z,5.03
2023-02-07T19:24:54.340Z,5.15
2023-02-07T19:27:22.174Z,3.78
2023-02-07T19:29:51.177Z,4.93
2023-02-07T19:32:19.364Z,4.47
2023-02-07T19:34:49.092Z,4.68
2023-02-07T19:37:16.718Z,4.60
2023-02-07T19:39:46.080Z,4.30
2023-02-07T19:42:13.784Z,4.10
2023-02-07T19:44:41.297Z,5.10
2023-02-07T19:47:10.573Z,5.32
2023-02-07T19:49:38.108Z,5.18
2023-02-07T19:52:05.865Z,5.53
2023-02-07T19:54:33.507Z,4.80
2023-02-07T19:57:01.087Z,4.40
2023-02-07T19:59:28.780Z,4.75
2023-02-07T20:01:56.450Z,4.07
2023-02-07T20:04:25.428Z,4.55
2023-02-07T20:06:52.966Z,4.20
2023-02-07T20:09:20.549Z,4.13
2023-02-07T20:11:48.195Z,3.58
2023-02-07T20:14:15.724Z,3.88
2023-02-07T20:16:43.284Z,3.65
2023-02-07T20:19:11.035Z,3.90
2023-02-07T20:21:40.512Z,3.47
2023-02-07T20:24:08.906Z,3.28
2023-02-07T20:26:39.448Z,3.95
2023-02-07T20:29:09.756Z,3.70
2023-02-07T20:31:38.702Z,3.40
2023-02-07T20:34:06.526Z,3.85
2023-02-07T20:36:40.645Z,4.15
2023-02-07T20:39:12.384Z,3.70
2023-02-07T20:41:41.670Z,3.60
2023-02-07T20:44:19.500Z,4.00
2023-02-07T20:46:49.150Z,3.35
2023-02-07T20:49:19.852Z,3.92
2023-02-07T20:51:49.375Z,4.22
2023-02-07T20:54:20.356Z,3.88
2023-02-07T20:56:48.289Z,4.25
2023-02-07T20:59:17.870Z,3.95
2023-02-07T21:01:45.515Z,3.97
2023-02-07T21:04:13.304Z,3.42
2023-02-07T21:06:42.506Z,4.05
2023-02-07T21:09:10.461Z,6.25
2023-02-07T21:11:42.062Z,4.45
2023-02-07T21:14:13.842Z,3.92
2023-02-07T21:16:41.526Z,3.70
2023-02-07T21:19:09.149Z,3.50
2023-02-07T21:21:36.737Z,3.75
2023-02-07T21:24:04.873Z,3.67
2023-02-07T21:26:32.428Z,3.50
2023-02-07T21:29:03.545Z,3.25
2023-02-07T21:31:34.777Z,3.80
2023-02-07T21:34:03.608Z,6.95
2023-02-07T21:36:32.660Z,6.65
2023-02-07T21:39:04.241Z,4.22
2023-02-07T21:41:32.644Z,4.40
2023-02-07T21:44:01.975Z,4.07
2023-02-07T21:46:32.716Z,3.85
2023-02-07T21:49:02.406Z,4.03
2023-02-07T21:51:31.965Z,3.97
2023-02-07T21:54:00.109Z,3.67
2023-02-07T21:56:29.475Z,4.13
2023-02-07T21:58:59.106Z,4.45
2023-02-07T22:01:29.989Z,4.57
2023-02-07T22:03:59.962Z,8.50
2023-02-07T22:06:28.731Z,14.98
2023-02-07T22:08:59.053Z,17.17
2023-02-07T22:11:29.609Z,9.40
2023-02-07T22:13:57.637Z,5.47
2023-02-07T22:16:28.184Z,4.78
2023-02-07T22:18:58.801Z,5.53
2023-02-07T22:21:28.190Z,4.85
2023-02-07T22:23:57.306Z,4.90
2023-02-07T22:26:26.177Z,4.63
2023-02-07T22:28:54.096Z,4.63
2023-02-07T22:31:23.970Z,4.95
2023-02-07T22:33:52.825Z,4.47
2023-02-07T22:36:23.766Z,4.10
2023-02-07T22:38:51.664Z,5.05
2023-02-07T22:41:20.009Z,4.55
2023-02-07T22:43:47.851Z,4.47
2023-02-07T22:46:17.566Z,4.38
2023-02-07T22:48:45.368Z,4.25
2023-02-07T22:51:14.724Z,4.53
2023-02-07T22:53:43.647Z,8.15
2023-02-07T22:56:11.889Z,5.63
2023-02-07T22:58:41.182Z,4.15
2023-02-07T23:01:18.699Z,4.60
2023-02-07T23:03:46.246Z,4.60
2023-02-07T23:06:14.009Z,4.78
2023-02-07T23:08:43.444Z,4.90
2023-02-07T23:11:12.762Z,4.97
2023-02-07T23:13:41.072Z,4.95
2023-02-07T23:16:12.078Z,5.25
2023-02-07T23:18:40.034Z,4.80
2023-02-07T23:21:10.182Z,4.75
2023-02-07T23:23:38.191Z,4.57
2023-02-07T23:26:09.226Z,4.50
2023-02-07T23:28:37.835Z,4.57
2023-02-07T23:31:06.209Z,5.15
2023-02-07T23:33:34.459Z,5.80
2023-02-07T23:36:02.712Z,5.15
2023-02-07T23:38:30.306Z,4.75
2023-02-07T23:40:58.128Z,5.20
2023-02-07T23:43:27.167Z,4.82
2023-02-07T23:45:54.990Z,5.00
2023-02-07T23:48:22.633Z,4.88
2023-02-07T23:50:52.056Z,5.50
2023-02-07T23:53:19.888Z,4.80
2023-02-07T23:55:49.088Z,5.50
2023-02-07T23:58:16.821Z,5.68
